< < Back
Terminal Aerodrome Forecast


Current Version              Previous Versions:   1  2  3  4  5  6  7  8  9  

Terminal Aerodrome Forecast

950
FTUS42 KTAE 271100
TAFDHN
TAF
KDHN 271120Z 2712/2812 27004KT P6SM SKC
     FM271400 33013G22KT P6SM SKC
     FM272300 33007KT P6SM SKC=

Latest METAR

496
SAUS70 KWBC 280800 RRF
MTRDHN
METAR KDHN 280753Z AUTO 33006KT 10SM CLR 02/M01 A3043 RMK AO2 SLP304
T00171011 FZRANO


USA.gov is the U.S. government's official web portal to all federal, state and local government web resources and services.